createdAt,value
2019-05-05T00:00:41.343Z,78.70
2019-05-05T00:03:21.882Z,78.84
2019-05-05T00:05:54.636Z,78.75
2019-05-05T00:08:24.554Z,78.72
2019-05-05T00:11:07.552Z,78.84
2019-05-05T00:13:47.506Z,78.75
2019-05-05T00:16:18.665Z,78.76
2019-05-05T00:18:48.183Z,78.79
2019-05-05T00:21:17.628Z,78.68
2019-05-05T00:23:47.120Z,78.73
2019-05-05T00:26:16.828Z,78.72
2019-05-05T00:28:46.485Z,78.74
2019-05-05T00:31:15.990Z,78.74
2019-05-05T00:33:45.704Z,78.68
2019-05-05T00:36:15.583Z,78.74
2019-05-05T00:38:48.789Z,78.66
2019-05-05T00:41:18.310Z,78.69
2019-05-05T00:43:47.787Z,78.58
2019-05-05T00:46:35.290Z,78.60
2019-05-05T00:49:05.401Z,78.48
2019-05-05T00:51:35.953Z,78.51
2019-05-05T00:54:05.400Z,78.40
2019-05-05T00:56:34.882Z,78.43
2019-05-05T00:59:14.881Z,78.30
2019-05-05T01:02:04.755Z,78.25
2019-05-05T01:04:44.728Z,78.31
2019-05-05T01:07:14.847Z,78.08
2019-05-05T01:09:45.248Z,78.10
2019-05-05T01:12:16.062Z,78.00
2019-05-05T01:14:45.573Z,78.06
2019-05-05T01:17:15.315Z,78.03
2019-05-05T01:19:59.530Z,77.94
2019-05-05T01:22:17.106Z,77.80
2019-05-05T01:24:46.597Z,77.73
2019-05-05T01:27:16.790Z,77.66
2019-05-05T01:29:46.238Z,77.62
2019-05-05T01:32:24.687Z,77.53
2019-05-05T01:34:55.382Z,77.48
2019-05-05T01:37:26.499Z,77.46
2019-05-05T01:39:58.632Z,77.53
2019-05-05T01:42:28.172Z,77.53
2019-05-05T01:44:58.067Z,77.56
2019-05-05T01:47:27.633Z,77.54
2019-05-05T01:49:57.071Z,77.60
2019-05-05T01:52:26.559Z,77.58
2019-05-05T01:54:56.008Z,77.60
2019-05-05T01:57:26.305Z,77.60
2019-05-05T01:59:56.545Z,77.66
2019-05-05T02:02:26.375Z,77.75
2019-05-05T02:04:55.861Z,77.79
2019-05-05T02:07:25.392Z,77.82
2019-05-05T02:09:55.496Z,77.87
2019-05-05T02:12:25.116Z,77.88
2019-05-05T02:14:55.253Z,77.88
2019-05-05T02:17:25.890Z,77.88
2019-05-05T02:19:55.766Z,77.96
2019-05-05T02:22:25.455Z,78.03
2019-05-05T02:24:55.310Z,78.06
2019-05-05T02:27:25.295Z,78.11
2019-05-05T02:30:16.158Z,78.12
2019-05-05T02:32:48.827Z,78.14
2019-05-05T02:35:18.310Z,78.22
2019-05-05T02:37:48.571Z,78.25
2019-05-05T02:40:20.364Z,78.16
2019-05-05T02:42:50.649Z,78.18
2019-05-05T02:45:25.121Z,78.21
2019-05-05T02:48:05.955Z,78.25
2019-05-05T02:51:00.162Z,78.26
2019-05-05T02:53:26.482Z,78.19
2019-05-05T02:55:59.689Z,78.22
2019-05-05T02:58:30.774Z,78.11
2019-05-05T03:01:19.258Z,78.12
2019-05-05T03:03:49.442Z,78.13
2019-05-05T03:06:19.052Z,78.11
2019-05-05T03:08:51.252Z,78.11
2019-05-05T03:11:21.158Z,78.08
2019-05-05T03:13:53.572Z,78.04
2019-05-05T03:16:25.759Z,78.03
2019-05-05T03:18:55.876Z,77.92
2019-05-05T03:21:25.953Z,77.90
2019-05-05T03:23:56.176Z,77.91
2019-05-05T03:26:26.005Z,77.90
2019-05-05T03:29:04.773Z,77.97
2019-05-05T03:31:35.351Z,77.91
2019-05-05T03:34:06.366Z,77.86
2019-05-05T03:36:36.578Z,77.86
2019-05-05T03:39:07.294Z,77.81
2019-05-05T03:41:44.229Z,77.81
2019-05-05T03:44:27.738Z,77.86
2019-05-05T03:46:57.752Z,77.81
2019-05-05T03:49:28.029Z,77.75
2019-05-05T03:51:57.846Z,77.82
2019-05-05T03:54:27.676Z,77.79
2019-05-05T03:57:09.522Z,77.78
2019-05-05T03:59:41.768Z,77.66
2019-05-05T04:02:15.709Z,77.58
2019-05-05T04:04:46.855Z,77.46
2019-05-05T04:07:16.596Z,77.37
2019-05-05T04:09:46.958Z,77.34
2019-05-05T04:12:17.233Z,77.34
2019-05-05T04:14:46.762Z,77.26
2019-05-05T04:17:22.025Z,77.21
2019-05-05T04:19:56.138Z,77.17
2019-05-05T04:22:27.087Z,77.13
2019-05-05T04:24:56.853Z,76.97
2019-05-05T04:27:26.302Z,76.84
2019-05-05T04:29:55.794Z,76.70
2019-05-05T04:32:25.244Z,76.55
2019-05-05T04:34:54.794Z,76.35
2019-05-05T04:37:24.302Z,76.28
2019-05-05T04:39:53.934Z,76.18
2019-05-05T04:42:24.556Z,76.09
2019-05-05T04:44:54.230Z,75.98
2019-05-05T04:47:31.750Z,75.62
2019-05-05T04:50:06.192Z,75.48
2019-05-05T04:52:35.709Z,75.19
2019-05-05T04:55:07.339Z,75.00
2019-05-05T04:57:36.786Z,74.60
2019-05-05T05:00:06.815Z,74.24
2019-05-05T05:02:56.027Z,74.10
2019-05-05T05:05:33.733Z,73.75
2019-05-05T05:08:03.900Z,73.43
2019-05-05T05:10:34.626Z,73.14
2019-05-05T05:13:04.760Z,72.83
2019-05-05T05:15:34.590Z,72.66
2019-05-05T05:18:14.913Z,72.19
2019-05-05T05:20:46.197Z,71.89
2019-05-05T05:23:15.681Z,71.60
2019-05-05T05:25:45.124Z,70.88
2019-05-05T05:28:15.692Z,70.53
2019-05-05T05:30:45.138Z,70.30
2019-05-05T05:33:14.983Z,70.15
2019-05-05T05:35:44.622Z,69.77
2019-05-05T05:38:14.257Z,69.46
2019-05-05T05:40:53.561Z,68.68
2019-05-05T05:43:25.350Z,68.51
2019-05-05T05:46:05.309Z,68.25
2019-05-05T05:48:45.782Z,67.68
2019-05-05T05:51:19.403Z,67.46
2019-05-05T05:53:48.441Z,67.24
2019-05-05T05:56:18.109Z,67.32
2019-05-05T05:58:47.781Z,67.29
2019-05-05T06:01:17.232Z,67.16
2019-05-05T06:03:46.711Z,66.51
2019-05-05T06:06:16.497Z,65.45
2019-05-05T06:08:46.009Z,65.52
2019-05-05T06:11:15.490Z,65.98
2019-05-05T06:13:47.577Z,66.23
2019-05-05T06:16:16.787Z,65.77
2019-05-05T06:18:46.610Z,65.73
2019-05-05T06:21:16.103Z,65.61
2019-05-05T06:23:45.595Z,65.22
2019-05-05T06:26:15.403Z,65.45
2019-05-05T06:28:44.959Z,65.42
2019-05-05T06:31:15.053Z,65.34
2019-05-05T06:33:44.616Z,65.54
2019-05-05T06:36:15.669Z,65.46
2019-05-05T06:38:45.187Z,65.49
2019-05-05T06:41:23.628Z,65.60
2019-05-05T06:43:54.826Z,65.45
2019-05-05T06:46:25.968Z,65.14
2019-05-05T06:48:55.438Z,65.22
2019-05-05T06:51:24.931Z,65.13
2019-05-05T06:53:54.720Z,65.20
2019-05-05T06:56:24.201Z,65.04
2019-05-05T06:58:54.117Z,64.89
2019-05-05T07:01:24.789Z,65.08
2019-05-05T07:03:55.392Z,64.80
2019-05-05T07:06:24.930Z,64.63
2019-05-05T07:08:54.677Z,64.91
2019-05-05T07:11:25.710Z,64.60
2019-05-05T07:13:55.584Z,64.23
2019-05-05T07:16:25.405Z,64.18
2019-05-05T07:18:54.854Z,64.13
2019-05-05T07:21:25.953Z,63.91
2019-05-05T07:23:55.431Z,63.49
2019-05-05T07:26:24.908Z,63.77
2019-05-05T07:28:54.412Z,63.75
2019-05-05T07:31:24.071Z,63.09
2019-05-05T07:33:54.485Z,60.59
2019-05-05T07:36:44.463Z,61.40
2019-05-05T07:39:14.348Z,62.44
2019-05-05T07:41:44.707Z,62.84
2019-05-05T07:44:25.764Z,63.45
2019-05-05T07:46:45.497Z,62.91
2019-05-05T07:49:15.008Z,62.62
2019-05-05T07:51:44.962Z,61.90
2019-05-05T07:54:14.712Z,61.25
2019-05-05T07:56:44.578Z,61.18
2019-05-05T07:59:14.757Z,60.98
2019-05-05T08:01:46.671Z,60.30
2019-05-05T08:04:18.380Z,59.52
2019-05-05T08:06:48.696Z,59.29
2019-05-05T08:09:18.137Z,59.06
2019-05-05T08:11:47.928Z,58.86
2019-05-05T08:14:17.370Z,58.30
2019-05-05T08:16:53.478Z,57.61
2019-05-05T08:19:36.545Z,57.12
2019-05-05T08:22:07.026Z,56.63
2019-05-05T08:24:59.251Z,56.07
2019-05-05T08:27:33.984Z,56.43
2019-05-05T08:30:09.081Z,54.88
2019-05-05T08:32:39.847Z,56.04
2019-05-05T08:35:09.470Z,55.13
2019-05-05T08:37:39.097Z,54.57
2019-05-05T08:40:09.226Z,54.42
2019-05-05T08:42:39.047Z,53.79
2019-05-05T08:45:08.841Z,52.56
2019-05-05T08:47:38.356Z,52.81
2019-05-05T08:50:08.129Z,51.62
2019-05-05T08:52:37.635Z,51.51
2019-05-05T08:55:07.620Z,51.41
2019-05-05T08:57:37.264Z,51.06
2019-05-05T09:00:08.418Z,50.57
2019-05-05T09:02:43.790Z,50.45
2019-05-05T09:05:14.477Z,51.25
2019-05-05T09:07:44.247Z,51.77
2019-05-05T09:10:14.331Z,52.06
2019-05-05T09:12:43.896Z,50.73
2019-05-05T09:15:14.102Z,50.41
2019-05-05T09:17:44.126Z,49.74
2019-05-05T09:20:15.169Z,49.35
2019-05-05T09:22:44.866Z,48.03
2019-05-05T09:25:16.070Z,48.08
2019-05-05T09:27:47.264Z,48.52
2019-05-05T09:30:19.033Z,48.19
2019-05-05T09:32:48.536Z,48.35
2019-05-05T09:35:18.123Z,48.04
2019-05-05T09:37:48.077Z,47.03
2019-05-05T09:40:20.616Z,46.24
2019-05-05T09:42:50.067Z,44.27
2019-05-05T09:45:19.636Z,44.78
2019-05-05T09:47:49.210Z,44.69
2019-05-05T09:50:18.732Z,44.09
2019-05-05T09:52:48.343Z,44.61
2019-05-05T09:55:17.825Z,44.53
2019-05-05T09:57:47.601Z,45.37
2019-05-05T10:00:17.168Z,45.66
2019-05-05T10:02:46.729Z,44.66
2019-05-05T10:05:18.051Z,43.49
2019-05-05T10:07:47.544Z,42.19
2019-05-05T10:10:18.622Z,43.86
2019-05-05T10:12:48.071Z,43.65
2019-05-05T10:15:18.032Z,44.18
2019-05-05T10:17:47.566Z,43.59
2019-05-05T10:20:17.245Z,42.15
2019-05-05T10:22:46.706Z,41.98
2019-05-05T10:25:34.758Z,42.00
2019-05-05T10:28:04.552Z,40.70
2019-05-05T10:30:34.993Z,40.29
2019-05-05T10:33:04.422Z,40.05
2019-05-05T10:35:34.609Z,38.91
2019-05-05T10:38:04.917Z,39.13
2019-05-05T10:40:35.426Z,38.34
2019-05-05T10:43:05.321Z,39.08
2019-05-05T10:45:34.936Z,38.11
2019-05-05T10:48:04.600Z,38.08
2019-05-05T10:50:34.627Z,36.81
2019-05-05T10:53:04.803Z,37.33
2019-05-05T10:55:34.927Z,36.32
2019-05-05T10:58:04.939Z,36.49
2019-05-05T11:00:44.352Z,36.50
2019-05-05T11:03:15.185Z,37.36
2019-05-05T11:05:45.573Z,38.02
2019-05-05T11:08:16.477Z,37.77
2019-05-05T11:10:46.023Z,38.67
2019-05-05T11:13:17.175Z,37.98
2019-05-05T11:15:46.792Z,37.96
2019-05-05T11:18:16.560Z,38.50
2019-05-05T11:20:46.202Z,37.99
2019-05-05T11:23:15.661Z,38.53
2019-05-05T11:25:45.336Z,38.29
2019-05-05T11:28:15.084Z,38.16
2019-05-05T11:30:46.768Z,37.74
2019-05-05T11:33:34.705Z,38.31
2019-05-05T11:36:06.061Z,38.35
2019-05-05T11:38:35.520Z,37.47
2019-05-05T11:41:05.151Z,37.08
2019-05-05T11:43:34.633Z,37.33
2019-05-05T11:46:04.252Z,35.87
2019-05-05T11:48:34.471Z,35.02
2019-05-05T11:51:04.807Z,35.51
2019-05-05T11:53:34.266Z,35.16
2019-05-05T11:56:04.329Z,35.35
2019-05-05T11:58:34.987Z,35.29
2019-05-05T12:01:04.627Z,35.58
2019-05-05T12:03:34.224Z,36.15
2019-05-05T12:06:04.706Z,36.21
2019-05-05T12:08:34.761Z,36.33
2019-05-05T12:11:05.598Z,36.07
2019-05-05T12:13:35.180Z,35.88
2019-05-05T12:16:06.178Z,36.09
2019-05-05T12:18:35.765Z,36.63
2019-05-05T12:21:05.654Z,36.97
2019-05-05T12:23:35.263Z,36.65
2019-05-05T12:26:06.545Z,36.79
2019-05-05T12:28:49.639Z,36.34
2019-05-05T12:31:20.835Z,36.45
2019-05-05T12:33:51.358Z,35.73
2019-05-05T12:36:23.526Z,35.34
2019-05-05T12:38:54.553Z,34.75
2019-05-05T12:41:24.357Z,35.06
2019-05-05T12:43:54.932Z,33.26
2019-05-05T12:46:38.540Z,33.54
2019-05-05T12:49:09.654Z,33.61
2019-05-05T12:51:39.266Z,33.59
2019-05-05T12:54:08.756Z,34.04
2019-05-05T12:56:38.321Z,34.44
2019-05-05T12:59:09.454Z,34.62
2019-05-05T13:01:40.805Z,35.17
2019-05-05T13:04:10.257Z,34.93
2019-05-05T13:06:39.773Z,35.17
2019-05-05T13:09:09.402Z,35.23
2019-05-05T13:11:39.018Z,34.72
2019-05-05T13:14:08.536Z,35.16
2019-05-05T13:16:38.483Z,35.00
2019-05-05T13:19:09.559Z,34.34
2019-05-05T13:21:40.693Z,34.39
2019-05-05T13:24:23.932Z,33.39
2019-05-05T13:26:55.071Z,33.75
2019-05-05T13:29:24.771Z,33.87
2019-05-05T13:31:55.201Z,34.38
2019-05-05T13:34:24.761Z,34.24
2019-05-05T13:36:55.495Z,34.67
2019-05-05T13:39:25.287Z,34.81
2019-05-05T13:41:54.757Z,35.11
2019-05-05T13:44:28.633Z,34.93
2019-05-05T13:46:58.230Z,34.90
2019-05-05T13:49:29.431Z,35.28
2019-05-05T13:52:00.555Z,34.96
2019-05-05T13:54:30.164Z,34.75
2019-05-05T13:56:59.792Z,34.58
2019-05-05T13:59:29.629Z,34.73
2019-05-05T14:01:59.129Z,34.35
2019-05-05T14:04:28.789Z,33.98
2019-05-05T14:06:58.507Z,34.14
2019-05-05T14:09:27.964Z,34.06
2019-05-05T14:11:57.906Z,33.12
2019-05-05T14:14:27.390Z,34.06
2019-05-05T14:16:57.197Z,33.89
2019-05-05T14:19:26.769Z,33.88
2019-05-05T14:21:56.258Z,34.08
2019-05-05T14:24:34.020Z,34.15
2019-05-05T14:27:04.474Z,34.32
2019-05-05T14:29:38.711Z,33.89
2019-05-05T14:32:09.901Z,34.36
2019-05-05T14:34:44.175Z,34.48
2019-05-05T14:37:33.880Z,33.31
2019-05-05T14:40:04.720Z,33.51
2019-05-05T14:42:34.448Z,33.83
2019-05-05T14:45:06.215Z,33.70
2019-05-05T14:47:35.710Z,33.17
2019-05-05T14:50:06.095Z,33.28
2019-05-05T14:52:35.878Z,33.40
2019-05-05T14:55:07.681Z,33.62
2019-05-05T14:57:37.153Z,34.15
2019-05-05T15:00:10.539Z,34.41
2019-05-05T15:02:40.164Z,34.64
2019-05-05T15:05:27.881Z,34.86
2019-05-05T15:08:01.954Z,34.90
2019-05-05T15:10:34.456Z,35.08
2019-05-05T15:13:05.586Z,34.99
2019-05-05T15:15:35.443Z,35.21
2019-05-05T15:18:05.017Z,35.23
2019-05-05T15:20:36.593Z,34.96
2019-05-05T15:23:05.666Z,35.57
2019-05-05T15:25:35.154Z,35.53
2019-05-05T15:28:04.880Z,35.97
2019-05-05T15:30:34.341Z,37.30
2019-05-05T15:33:04.631Z,38.56
2019-05-05T15:35:34.533Z,39.50
2019-05-05T15:38:04.526Z,40.50
2019-05-05T15:40:34.173Z,40.77
2019-05-05T15:43:04.230Z,40.17
2019-05-05T15:45:34.173Z,39.80
2019-05-05T15:48:04.630Z,40.11
2019-05-05T15:50:34.256Z,41.11
2019-05-05T15:53:03.916Z,42.48
2019-05-05T15:55:33.973Z,43.50
2019-05-05T15:58:03.865Z,43.33
2019-05-05T16:00:33.845Z,43.46
2019-05-05T16:03:04.467Z,43.77
2019-05-05T16:05:34.727Z,43.90
2019-05-05T16:08:04.561Z,43.79
2019-05-05T16:10:34.703Z,43.12
2019-05-05T16:13:04.541Z,42.83
2019-05-05T16:15:36.782Z,42.49
2019-05-05T16:18:11.021Z,42.50
2019-05-05T16:20:57.402Z,42.24
2019-05-05T16:23:28.818Z,41.97
2019-05-05T16:25:58.684Z,42.06
2019-05-05T16:28:28.175Z,41.73
2019-05-05T16:30:57.670Z,41.79
2019-05-05T16:33:27.496Z,42.07
2019-05-05T16:35:57.017Z,42.61
2019-05-05T16:38:26.553Z,42.95
2019-05-05T16:40:56.417Z,43.01
2019-05-05T16:43:25.869Z,43.20
2019-05-05T16:45:55.426Z,43.36
2019-05-05T16:48:25.736Z,43.76
2019-05-05T16:50:55.538Z,44.05
2019-05-05T16:53:38.070Z,43.80
2019-05-05T16:56:10.832Z,43.82
2019-05-05T16:58:40.807Z,43.74
2019-05-05T17:01:11.906Z,44.09
2019-05-05T17:03:45.390Z,45.17
2019-05-05T17:06:14.110Z,45.54
2019-05-05T17:08:44.413Z,45.28
2019-05-05T17:11:15.008Z,45.72
2019-05-05T17:13:49.556Z,45.14
2019-05-05T17:16:35.212Z,44.52
2019-05-05T17:19:15.584Z,43.97
2019-05-05T17:21:46.716Z,44.85
2019-05-05T17:24:17.136Z,45.15
2019-05-05T17:26:46.639Z,44.43
2019-05-05T17:29:16.109Z,45.38
2019-05-05T17:31:45.616Z,46.18
2019-05-05T17:34:15.469Z,46.31
2019-05-05T17:36:45.380Z,44.95
2019-05-05T17:39:16.051Z,45.33
2019-05-05T17:41:47.457Z,45.09
2019-05-05T17:44:24.964Z,45.27
2019-05-05T17:47:13.856Z,45.18
2019-05-05T17:49:56.895Z,45.02
2019-05-05T17:52:28.049Z,45.28
2019-05-05T17:54:58.712Z,45.50
2019-05-05T17:57:28.162Z,45.79
2019-05-05T17:59:58.926Z,46.14
2019-05-05T18:02:28.393Z,46.55
2019-05-05T18:04:57.934Z,46.99
2019-05-05T18:07:35.038Z,47.20
2019-05-05T18:10:09.375Z,47.52
2019-05-05T18:12:44.528Z,47.86
2019-05-05T18:15:34.225Z,48.07
2019-05-05T18:18:04.398Z,48.21
2019-05-05T18:20:35.604Z,48.47
2019-05-05T18:23:05.073Z,48.73
2019-05-05T18:25:34.766Z,48.81
2019-05-05T18:28:15.832Z,48.98
2019-05-05T18:30:35.858Z,49.26
2019-05-05T18:33:05.507Z,49.41
2019-05-05T18:35:35.360Z,49.68
2019-05-05T18:38:04.920Z,49.78
2019-05-05T18:40:34.495Z,50.07
2019-05-05T18:43:05.637Z,50.28
2019-05-05T18:45:35.608Z,50.57
2019-05-05T18:48:05.151Z,50.73
2019-05-05T18:50:35.010Z,50.90
2019-05-05T18:53:04.888Z,51.04
2019-05-05T18:55:34.363Z,51.29
2019-05-05T18:58:05.643Z,51.59
2019-05-05T19:00:52.039Z,51.69
2019-05-05T19:03:24.554Z,51.65
2019-05-05T19:05:58.454Z,51.61
2019-05-05T19:08:29.619Z,51.76
2019-05-05T19:10:59.137Z,51.82
2019-05-05T19:13:28.655Z,51.98
2019-05-05T19:15:58.595Z,52.07
2019-05-05T19:18:28.234Z,52.04
2019-05-05T19:20:59.339Z,52.04
2019-05-05T19:23:29.895Z,52.12
2019-05-05T19:25:59.523Z,52.15
2019-05-05T19:28:41.257Z,52.17
2019-05-05T19:31:00.262Z,52.15
2019-05-05T19:33:29.762Z,52.15
2019-05-05T19:35:59.301Z,51.97
2019-05-05T19:38:29.205Z,52.06
2019-05-05T19:40:58.781Z,52.26
2019-05-05T19:43:29.409Z,52.17
2019-05-05T19:45:59.024Z,52.16
2019-05-05T19:48:28.725Z,52.26
2019-05-05T19:50:59.777Z,52.29
2019-05-05T19:53:29.347Z,52.28
2019-05-05T19:55:58.841Z,52.31
2019-05-05T19:58:28.355Z,52.28
2019-05-05T20:00:59.594Z,52.44
2019-05-05T20:03:29.235Z,52.42
2019-05-05T20:05:58.848Z,52.48
2019-05-05T20:08:39.687Z,52.54
2019-05-05T20:10:59.508Z,52.60
2019-05-05T20:13:29.081Z,52.53
2019-05-05T20:16:04.597Z,52.52
2019-05-05T20:18:34.323Z,52.57
2019-05-05T20:21:07.092Z,52.73
2019-05-05T20:23:35.473Z,52.77
2019-05-05T20:26:04.977Z,52.83
2019-05-05T20:28:34.602Z,53.00
2019-05-05T20:31:04.038Z,53.23
2019-05-05T20:33:38.175Z,53.21
2019-05-05T20:36:15.404Z,53.27
2019-05-05T20:38:49.423Z,53.34
2019-05-05T20:41:20.731Z,53.31
2019-05-05T20:43:50.329Z,53.37
2019-05-05T20:46:19.999Z,53.42
2019-05-05T20:48:49.547Z,53.40
2019-05-05T20:51:19.088Z,53.42
2019-05-05T20:53:49.373Z,53.55
2019-05-05T20:56:19.461Z,53.56
2019-05-05T20:58:48.964Z,53.73
2019-05-05T21:01:19.430Z,53.89
2019-05-05T21:03:48.918Z,53.93
2019-05-05T21:06:18.365Z,54.01
2019-05-05T21:08:48.480Z,54.11
2019-05-05T21:11:18.293Z,54.22
2019-05-05T21:13:47.752Z,54.26
2019-05-05T21:16:17.233Z,54.41
2019-05-05T21:18:47.130Z,54.51
2019-05-05T21:21:18.233Z,54.64
2019-05-05T21:23:49.354Z,54.78
2019-05-05T21:26:23.560Z,55.16
2019-05-05T21:28:53.786Z,55.11
2019-05-05T21:31:24.742Z,55.24
2019-05-05T21:33:55.196Z,55.41
2019-05-05T21:36:24.682Z,55.71
2019-05-05T21:38:54.908Z,55.76
2019-05-05T21:41:25.371Z,55.94
2019-05-05T21:43:54.863Z,56.02
2019-05-05T21:46:24.375Z,56.22
2019-05-05T21:48:54.525Z,56.32
2019-05-05T21:51:28.614Z,56.62
2019-05-05T21:54:16.566Z,56.49
2019-05-05T21:57:04.504Z,56.62
2019-05-05T21:59:34.006Z,56.75
2019-05-05T22:02:04.001Z,56.83
2019-05-05T22:04:33.834Z,56.99
2019-05-05T22:07:03.855Z,57.23
2019-05-05T22:09:33.668Z,57.34
2019-05-05T22:12:04.167Z,57.74
2019-05-05T22:14:34.232Z,57.79
2019-05-05T22:17:04.188Z,57.74
2019-05-05T22:19:47.538Z,57.85
2019-05-05T22:22:18.666Z,58.27
2019-05-05T22:24:48.124Z,58.24
2019-05-05T22:27:17.614Z,58.32
2019-05-05T22:29:47.093Z,58.63
2019-05-05T22:32:16.614Z,58.74
2019-05-05T22:34:46.105Z,58.92
2019-05-05T22:37:15.549Z,59.16
2019-05-05T22:39:45.360Z,59.23
2019-05-05T22:42:15.757Z,59.45
2019-05-05T22:44:45.376Z,59.68
2019-05-05T22:47:14.824Z,59.66
2019-05-05T22:49:44.503Z,60.01
2019-05-05T22:52:14.528Z,59.96
2019-05-05T22:54:44.489Z,60.07
2019-05-05T22:57:15.063Z,60.17
2019-05-05T22:59:44.897Z,60.34
2019-05-05T23:02:16.021Z,60.60
2019-05-05T23:04:47.175Z,60.60
2019-05-05T23:07:21.022Z,60.84
2019-05-05T23:09:50.505Z,60.98
2019-05-05T23:12:19.971Z,61.29
2019-05-05T23:14:49.448Z,61.34
2019-05-05T23:17:26.229Z,61.64
2019-05-05T23:19:58.612Z,61.66
2019-05-05T23:22:44.767Z,61.94
2019-05-05T23:25:30.911Z,61.97
2019-05-05T23:28:00.368Z,62.19
2019-05-05T23:30:39.476Z,62.14
2019-05-05T23:33:01.105Z,62.54
2019-05-05T23:35:30.593Z,62.56
2019-05-05T23:38:00.073Z,62.77
2019-05-05T23:40:30.106Z,62.69
2019-05-05T23:42:59.961Z,62.88
2019-05-05T23:45:29.418Z,63.23
2019-05-05T23:47:59.278Z,63.48
2019-05-05T23:50:28.784Z,63.36
2019-05-05T23:52:58.240Z,63.42
2019-05-05T23:55:28.128Z,63.46
2019-05-05T23:57:57.596Z,63.58
